createdAt,value
2019-06-01T00:10:13.171Z,14.07
2019-06-01T00:20:55.024Z,13.93
2019-06-01T00:31:35.018Z,13.82
2019-06-01T00:42:13.071Z,13.70
2019-06-01T00:52:56.030Z,13.48
2019-06-01T01:03:38.997Z,13.34
2019-06-01T01:14:22.204Z,13.28
2019-06-01T01:25:03.854Z,13.01
2019-06-01T01:35:47.529Z,12.89
2019-06-01T01:46:31.942Z,12.87
2019-06-01T01:57:14.681Z,12.67
2019-06-01T02:07:55.387Z,12.52
2019-06-01T02:18:37.846Z,12.37
2019-06-01T02:29:20.986Z,12.15
2019-06-01T02:40:05.520Z,12.10
2019-06-01T02:50:47.509Z,12.02
2019-06-01T03:01:29.594Z,11.86
2019-06-01T03:12:11.238Z,11.76
2019-06-01T03:22:53.362Z,11.63
2019-06-01T03:33:35.446Z,11.55
2019-06-01T03:44:18.649Z,11.64
2019-06-01T03:55:00.224Z,11.67
2019-06-01T04:05:42.304Z,11.65
2019-06-01T04:16:22.509Z,11.78
2019-06-01T04:27:04.044Z,12.09
2019-06-01T04:37:42.369Z,15.50
2019-06-01T04:48:28.405Z,18.04
2019-06-01T04:59:13.531Z,19.77
2019-06-01T05:09:56.788Z,19.69
2019-06-01T05:20:37.189Z,20.03
2019-06-01T05:31:25.048Z,22.68
2019-06-01T05:42:02.451Z,24.52
2019-06-01T05:52:47.829Z,27.30
2019-06-01T06:03:40.314Z,25.73
2019-06-01T06:14:13.375Z,24.50
2019-06-01T06:24:55.416Z,28.79
2019-06-01T06:35:38.721Z,31.10
2019-06-01T06:46:24.851Z,32.26
2019-06-01T06:57:09.278Z,37.10
2019-06-01T07:07:50.862Z,33.50
2019-06-01T07:18:29.572Z,28.14
2019-06-01T07:29:03.420Z,22.57
2019-06-01T07:39:41.842Z,21.79
2019-06-01T07:50:21.921Z,21.41
2019-06-01T08:01:01.753Z,21.37
2019-06-01T08:11:42.447Z,21.71
2019-06-01T08:22:23.906Z,21.80
2019-06-01T08:33:05.614Z,22.14
2019-06-01T08:43:46.780Z,22.25
2019-06-01T08:54:28.172Z,22.65
2019-06-01T09:05:23.264Z,22.75
2019-06-01T09:15:52.919Z,23.10
2019-06-01T09:26:33.868Z,23.21
2019-06-01T09:37:16.208Z,23.57
2019-06-01T09:47:50.795Z,23.79
2019-06-01T09:58:32.781Z,24.53
2019-06-01T10:09:11.906Z,24.40
2019-06-01T10:19:53.079Z,24.93
2019-06-01T10:30:34.119Z,24.95
2019-06-01T10:41:09.164Z,25.59
2019-06-01T10:51:50.336Z,26.04
2019-06-01T11:02:32.540Z,26.19
2019-06-01T11:13:11.389Z,26.75
2019-06-01T11:23:52.870Z,26.72
2019-06-01T11:34:34.155Z,27.02
2019-06-01T11:45:16.520Z,27.58
2019-06-01T11:55:57.568Z,27.94
2019-06-01T12:06:37.894Z,28.12
2019-06-01T12:49:14.409Z,27.42
2019-06-01T12:59:56.167Z,28.12
2019-06-01T13:10:38.320Z,28.05
2019-06-01T13:21:20.677Z,28.05
2019-06-01T13:32:04.702Z,28.76
2019-06-01T13:42:32.929Z,28.96
2019-06-01T13:53:17.914Z,30.30
2019-06-01T14:03:58.599Z,29.22
2019-06-01T14:14:38.594Z,29.17
2019-06-01T14:25:15.022Z,29.09
2019-06-01T14:35:56.775Z,30.40
2019-06-01T14:46:52.945Z,30.31
2019-06-01T14:57:20.711Z,30.95
2019-06-01T15:08:04.876Z,31.53
2019-06-01T15:18:46.047Z,31.43
2019-06-01T15:29:24.935Z,31.43
2019-06-01T15:40:05.855Z,31.57
2019-06-01T15:50:45.822Z,31.80
2019-06-01T16:01:28.789Z,31.76
2019-06-01T16:12:08.779Z,31.36
2019-06-01T16:22:47.066Z,30.79
2019-06-01T16:33:27.870Z,30.77
2019-06-01T16:44:09.012Z,30.56
2019-06-01T16:54:51.858Z,29.44
2019-06-01T17:05:34.823Z,29.38
2019-06-01T17:16:16.733Z,29.21
2019-06-01T17:27:02.139Z,28.99
2019-06-01T17:37:46.026Z,28.72
2019-06-01T17:48:26.935Z,28.62
2019-06-01T17:59:05.287Z,28.59
2019-06-01T18:09:44.746Z,28.63
2019-06-01T18:20:18.669Z,28.44
2019-06-01T18:30:54.678Z,28.02
2019-06-01T18:41:36.680Z,28.17
2019-06-01T18:52:19.287Z,28.28
2019-06-01T19:02:52.782Z,27.87
2019-06-01T19:13:33.104Z,27.35
2019-06-01T19:24:10.693Z,26.63
2019-06-01T19:34:50.992Z,25.98
2019-06-01T19:45:30.121Z,25.07
2019-06-01T19:56:13.470Z,24.54
2019-06-01T20:06:46.472Z,23.91
2019-06-01T20:17:28.820Z,23.27
2019-06-01T20:28:01.229Z,22.60
2019-06-01T20:52:47.691Z,22.02
2019-06-01T21:03:25.756Z,21.24
2019-06-01T21:14:02.600Z,20.68
2019-06-01T21:24:44.626Z,20.33
2019-06-01T21:35:25.688Z,20.06
2019-06-01T21:46:07.635Z,19.70
2019-06-01T21:56:50.943Z,19.47
2019-06-01T22:07:31.732Z,19.30
2019-06-01T22:18:14.726Z,19.10
2019-06-01T22:28:50.992Z,18.67
2019-06-01T22:39:32.991Z,18.30
2019-06-01T22:50:13.064Z,18.08
2019-06-01T23:00:51.844Z,17.91
2019-06-01T23:11:31.784Z,17.82
2019-06-01T23:22:14.754Z,17.77
2019-06-01T23:32:53.744Z,17.77
2019-06-01T23:43:33.001Z,17.66
2019-06-01T23:54:11.658Z,17.30
